Fort Chipewyan, Canada
Current Conditions -  °F | °C
As of 1:00 AM on Saturday 25 Oct 2014 (Local Time) from CYPY Reporting Station
Overcast Overcast  
Wind Chill: 20°   Ceiling: 5000
Heat Index: 28°   Visibility: 9mi
Dew Point: 27°   Wind: 8mph
Humidity: 93%   Direction: 290°WNW
Pressure: 29.81"   Gusts: NA
Location:  58.71°N, 111.15°W
Report Text: CYPY 250700Z AUTO 29007KT 9SM OVC050 M02/M03 A2981 RMK SLP112
Loading
Personal Weather Stations






























Interactive Weather Map New forecast layout! Learn more

10-Day Weather Forecast

Advertisements
Track Severe Weather on mobile